Terminal Aerodrome Forecast
Issued by NWS

Home | Current Version | Previous Version | Text Only | Print | Product List | Glossary On
Versions: 1 2 3 4 5 6 7 8 9 10 11 12
000
FTUS43 KLSX 312320
TAFUIN
TAF
KUIN 312320Z 0100/0124 16006KT P6SM SCT100
     FM010300 18004KT P6SM VCTS BKN080CB
     FM010700 VRB03KT P6SM VCSH OVC100
     FM011500 32005KT P6SM BKN100
     FM012100 32008KT P6SM SCT200=

USA.gov is the U.S. government's official web portal to all federal, state and local government web resources and services.